Time;durP1;ratioP1;P1;durP2;ratioP2;P2;SDS_P1;SDS_P2;PMS_P1;PMS_P2;Temp;Humidity;BMP_temperature;BMP_pressure;BME280_temperature;BME280_humidity;BME280_pressure;Samples;Min_cycle;Max_cycle;Signal;HPM_P1;HPM_P2
2022/02/08 00:00:54;;;;;;;13.00;4.85;;;;;;;4.65;77.76;101150.41;5054045;28;20044;-64
2022/02/08 00:03:42;;;;;;;16.25;4.70;;;;;;;4.64;77.25;101139.28;5054399;28;20495;-64
2022/02/08 00:06:46;;;;;;;15.88;5.63;;;;;;;4.66;77.34;101144.47;5055213;28;20121;-64
2022/02/08 00:09:37;;;;;;;14.63;4.85;;;;;;;4.65;77.35;101147.84;5055001;28;20511;-65
2022/02/08 00:12:24;;;;;;;12.75;4.90;;;;;;;4.66;77.08;101134.22;5055371;28;20051;-64
2022/02/08 00:15:09;;;;;;;8.80;4.18;;;;;;;4.66;77.42;101129.97;5054070;28;20063;-64
2022/02/08 00:17:56;;;;;;;14.90;4.80;;;;;;;4.67;76.89;101130.84;5054768;28;20450;-65
2022/02/08 00:20:42;;;;;;;20.83;6.28;;;;;;;4.68;77.27;101118.09;5054816;28;20076;-66
2022/02/08 00:23:27;;;;;;;13.48;4.63;;;;;;;4.69;77.22;101130.13;5053943;28;20048;-64
2022/02/08 00:26:11;;;;;;;;;;;;;;;4.69;77.88;101126.69;5054112;28;20107;-64
2022/02/08 00:28:58;;;;;;;16.60;5.15;;;;;;;4.67;77.35;101128.28;5054544;28;19924;-64
2022/02/08 00:31:45;;;;;;;23.27;5.10;;;;;;;4.68;77.31;101130.06;5054751;28;20480;-64
2022/02/08 00:34:32;;;;;;;16.50;4.20;;;;;;;4.69;77.66;101134.41;5054476;28;20103;-64
2022/02/08 00:37:19;;;;;;;13.93;4.85;;;;;;;4.68;77.75;101137.75;5054640;28;20090;-65
2022/02/08 00:40:03;;;;;;;11.13;4.50;;;;;;;4.70;77.51;101126.75;5053859;28;20101;-64
2022/02/08 00:42:50;;;;;;;11.18;4.70;;;;;;;4.71;77.53;101132.81;5054563;28;20442;-64
2022/02/08 00:45:57;;;;;;;10.63;4.55;;;;;;;4.70;77.76;101131.03;5054397;28;20450;-64
2022/02/08 00:48:43;;;;;;;16.60;5.03;;;;;;;4.70;77.41;101131.91;5054596;28;20102;-65
2022/02/08 00:51:37;;;;;;;11.23;4.32;;;;;;;4.71;77.63;101125.09;5054058;28;20514;-64
2022/02/08 00:54:26;;;;;;;9.40;4.07;;;;;;;4.70;77.94;101129.34;5053463;28;20396;-64
2022/02/08 00:57:14;;;;;;;20.13;5.30;;;;;;;4.70;77.81;101126.75;5054418;28;20060;-64
2022/02/08 01:00:01;;;;;;;13.50;5.72;;;;;;;4.71;77.67;101122.53;5053460;28;20048;-64
2022/02/08 01:02:45;;;;;;;16.42;4.85;;;;;;;4.70;78.10;101115.63;5053804;28;20067;-64
2022/02/08 01:05:33;;;;;;;11.43;5.43;;;;;;;4.71;78.05;101128.53;5054124;28;20072;-64
2022/02/08 01:08:19;;;;;;;11.77;5.10;;;;;;;4.72;78.05;101134.56;5053304;28;20396;-64
2022/02/08 01:11:12;;;;;;;11.25;4.63;;;;;;;4.71;78.27;101120.84;5052807;28;20044;-64
2022/02/08 01:14:02;;;;;;;21.45;6.20;;;;;;;4.72;77.47;101119.16;5053187;28;20059;-64
2022/02/08 01:16:50;;;;;;;11.90;4.63;;;;;;;4.72;77.99;101125.16;5053094;28;20523;-65
2022/02/08 01:19:44;;;;;;;18.10;5.63;;;;;;;4.72;78.51;101120.03;5053238;28;20052;-64
2022/02/08 01:22:31;;;;;;;10.65;4.35;;;;;;;4.72;77.99;101120.03;5053602;28;20128;-64
2022/02/08 01:25:27;;;;;;;11.85;4.85;;;;;;;4.73;78.60;101121.81;5053587;28;20515;-64
2022/02/08 01:31:19;;;;;;;12.98;5.57;;;;;;;4.77;78.11;101129.69;5053527;28;20056;-65
2022/02/08 01:34:28;;;;;;;11.80;4.18;;;;;;;4.76;78.86;101126.22;5052924;28;20554;-64
2022/02/08 01:48:52;;;;;;;13.18;4.95;;;;;;;4.78;78.15;101119.50;5053710;28;20557;-64
2022/02/08 01:51:39;;;;;;;11.30;5.10;;;;;;;4.80;78.38;101119.59;5052610;28;20122;-65
2022/02/08 01:54:24;;;;;;;12.77;4.47;;;;;;;4.80;78.38;101124.75;5052743;28;20099;-64
2022/02/08 01:57:08;;;;;;;13.13;4.72;;;;;;;4.79;79.00;101117.81;5052594;28;20056;-65
2022/02/08 01:59:53;;;;;;;11.30;4.93;;;;;;;4.81;79.09;101114.53;5053311;28;20132;-64
2022/02/08 02:02:38;;;;;;;13.18;4.80;;;;;;;4.81;78.68;101108.53;5052380;28;20060;-65
2022/02/08 02:05:22;;;;;;;;;;;;;;;4.80;79.24;101110.19;5052465;28;20130;-64
2022/02/08 02:08:06;;;;;;;12.20;4.72;;;;;;;4.81;79.35;101108.53;5053451;28;19967;-65
2022/02/08 02:10:53;;;;;;;10.13;4.72;;;;;;;4.81;79.26;101118.81;5052360;28;20090;-64
2022/02/08 02:13:47;;;;;;;12.25;4.90;;;;;;;4.83;79.34;101120.66;5053400;28;20048;-65
2022/02/08 02:19:34;;;;;;;12.35;5.18;;;;;;;4.83;79.36;101112.94;5052876;28;20138;-65
2022/02/08 02:22:21;;;;;;;6.97;4.75;;;;;;;4.84;79.58;101111.25;5053652;28;20063;-65
2022/02/08 02:25:06;;;;;;;7.22;4.30;;;;;;;4.84;78.92;101111.25;5057781;28;20578;-65
2022/02/08 02:27:54;;;;;;;9.93;5.55;;;;;;;4.84;79.06;101106.09;5057370;28;20403;-65
2022/02/08 02:30:44;;;;;;;16.98;5.30;;;;;;;4.84;79.09;101104.44;5056244;28;20044;-65
2022/02/08 02:33:28;;;;;;;11.80;4.90;;;;;;;4.84;79.42;101109.56;5056050;28;20423;-65
2022/02/08 02:36:13;;;;;;;13.18;5.10;;;;;;;4.84;79.46;101107.00;5056923;28;20047;-65
2022/02/08 02:39:00;;;;;;;12.95;5.75;;;;;;;4.86;79.88;101107.09;5057031;28;20522;-64
2022/02/08 02:41:49;;;;;;;10.98;4.82;;;;;;;4.85;79.17;101093.38;5056033;28;20155;-65
2022/02/08 02:44:33;;;;;;;11.10;5.22;;;;;;;4.86;79.55;101095.13;5055714;28;20048;-64
2022/02/08 02:47:17;;;;;;;11.82;5.97;;;;;;;4.85;79.67;101101.06;5056899;28;20086;-64
2022/02/08 02:50:08;;;;;;;;;;;;;;;4.85;79.70;101095.94;5057048;28;20450;-64
2022/02/08 02:52:55;;;;;;;7.50;4.22;;;;;;;4.85;79.25;101095.94;5055674;28;19919;-64
2022/02/08 02:55:39;;;;;;;12.25;5.10;;;;;;;4.85;79.00;101093.38;5056556;28;20075;-65
2022/02/08 02:58:31;;;;;;;9.38;5.07;;;;;;;4.86;79.79;101097.72;5056475;28;20084;-65
2022/02/08 03:04:26;;;;;;;9.85;4.80;;;;;;;4.87;79.45;101094.34;5056441;28;20225;-65
2022/02/08 03:19:24;;;;;;;20.30;7.63;;;;;;;4.89;79.70;101091.84;5056309;28;20064;-65
2022/02/08 03:22:13;;;;;;;11.77;5.82;;;;;;;4.91;79.70;101094.50;5055094;28;20091;-65
2022/02/08 03:25:03;;;;;;;14.18;5.40;;;;;;;4.91;79.26;101094.50;5055198;28;20216;-65
2022/02/08 03:27:53;;;;;;;10.65;5.22;;;;;;;4.91;79.90;101091.91;5056160;28;20117;-65
2022/02/08 03:30:37;;;;;;;10.43;5.47;;;;;;;4.92;79.76;101081.75;5055315;28;20526;-65
2022/02/08 03:33:24;;;;;;;9.50;5.57;;;;;;;4.94;79.81;101093.00;5055911;28;20119;-65
2022/02/08 03:36:11;;;;;;;14.95;6.38;;;;;;;4.94;79.80;101093.00;5055056;28;20060;-65
2022/02/08 03:39:17;;;;;;;9.45;5.32;;;;;;;4.95;79.62;101091.31;5055939;28;20404;-65
2022/02/08 03:42:17;;;;;;;11.68;6.25;;;;;;;4.96;80.01;101095.63;5055015;28;20095;-65
2022/02/08 03:45:04;;;;;;;18.23;5.82;;;;;;;4.95;79.70;101094.78;5054666;28;20052;-65
2022/02/08 03:47:54;;;;;;;10.95;6.05;;;;;;;4.97;79.91;101094.84;5055750;28;20460;-64
2022/02/08 03:50:50;;;;;;;15.35;7.20;;;;;;;4.97;79.91;101088.03;5056167;28;20149;-64
2022/02/08 03:53:35;;;;;;;12.65;5.40;;;;;;;4.97;79.65;101093.19;5055523;28;20071;-64
2022/02/08 03:56:22;;;;;;;;;;;;;;;4.98;80.13;101101.75;5054782;28;20111;-66
2022/02/08 03:59:11;;;;;;;9.10;6.13;;;;;;;4.98;79.85;101109.47;5054537;28;19966;-65
2022/02/08 04:02:26;;;;;;;11.43;6.03;;;;;;;4.99;80.17;101113.81;5055068;28;20063;-64
2022/02/08 04:05:31;;;;;;;16.20;6.10;;;;;;;4.98;80.34;101107.75;5055421;28;20048;-65
2022/02/08 04:08:21;;;;;;;8.45;5.60;;;;;;;5.01;80.02;101109.63;5054510;28;20551;-64
2022/02/08 04:11:07;;;;;;;14.02;6.18;;;;;;;5.01;79.76;101112.22;5055592;28;20071;-65
2022/02/08 04:13:59;;;;;;;15.45;6.25;;;;;;;5.00;79.38;101101.03;5054820;28;20051;-65
2022/02/08 04:16:43;;;;;;;9.77;5.10;;;;;;;5.02;80.18;101103.69;5054504;28;20125;-65
2022/02/08 04:19:46;;;;;;;;;;;;;;;5.02;79.97;101106.28;5055553;28;20052;-65
2022/02/08 04:32:25;;;;;;;10.38;6.30;;;;;;;5.05;79.75;101113.25;5055020;28;20052;-65
2022/02/08 04:35:41;;;;;;;11.15;5.88;;;;;;;5.05;80.15;101111.59;5053784;28;20052;-65
2022/02/08 04:41:19;;;;;;;8.00;5.35;;;;;;;5.07;80.17;101122.81;5054374;28;20052;-64
2022/02/08 04:47:14;;;;;;;12.93;5.63;;;;;;;5.07;79.72;101122.81;5053409;28;20072;-64
2022/02/08 04:49:58;;;;;;;15.98;6.88;;;;;;;5.09;79.68;101125.47;5053841;28;20066;-64
2022/02/08 04:52:47;;;;;;;10.07;5.30;;;;;;;5.07;80.55;101115.09;5053688;28;20055;-64
2022/02/08 04:58:35;;;;;;;12.30;5.82;;;;;;;5.10;79.90;101111.84;5054197;28;20179;-64
2022/02/08 05:01:44;;;;;;;11.45;6.95;;;;;;;5.11;80.28;101103.31;5054210;28;20565;-65
2022/02/08 05:46:51;;;;;;;8.52;5.72;;;;;;;5.19;80.31;101081.50;5053541;28;20400;-65
2022/02/08 05:49:49;;;;;;;9.38;5.32;;;;;;;5.22;80.39;101088.47;5052707;28;20059;-65
2022/02/08 05:55:35;;;;;;;12.70;5.88;;;;;;;5.20;80.72;101078.13;5053606;28;20079;-65
2022/02/08 05:58:26;;;;;;;13.65;5.90;;;;;;;5.21;80.84;101084.16;5053096;28;20090;-64
2022/02/08 06:01:11;;;;;;;6.82;5.05;;;;;;;5.22;80.66;101088.47;5053166;28;20056;-65
2022/02/08 06:03:55;;;;;;;;;;;;;;;5.23;80.25;101093.72;5053818;28;20091;-65
2022/02/08 06:06:39;;;;;;;12.60;5.93;;;;;;;5.21;80.39;101092.75;5053278;28;20390;-65
2022/02/08 06:09:23;;;;;;;8.25;5.72;;;;;;;5.23;80.46;101096.28;5052614;28;20056;-65
2022/02/08 06:12:08;;;;;;;7.47;5.65;;;;;;;5.23;80.77;101097.94;5053098;28;20071;-64
2022/02/08 06:14:58;;;;;;;8.23;5.57;;;;;;;5.25;80.43;101099.81;5052475;28;20044;-65
2022/02/08 06:17:42;;;;;;;9.40;5.95;;;;;;;5.25;80.90;101101.50;5053066;28;20094;-65
2022/02/08 06:20:26;;;;;;;7.95;5.75;;;;;;;5.27;80.91;101105.03;5052432;28;20056;-65
2022/02/08 06:23:10;;;;;;;9.23;5.20;;;;;;;5.27;80.85;101102.47;5052397;28;20048;-66
2022/02/08 06:25:55;;;;;;;11.48;5.53;;;;;;;5.28;80.49;101101.66;5052920;28;20044;-65
2022/02/08 06:28:39;;;;;;;9.43;5.20;;;;;;;5.29;80.53;101113.72;5052882;28;20087;-65
2022/02/08 06:31:26;;;;;;;10.10;6.07;;;;;;;5.29;80.21;101104.34;5052457;28;20084;-65
2022/02/08 06:34:12;;;;;;;6.38;5.32;;;;;;;5.30;80.66;101094.94;5053116;28;20129;-66
2022/02/08 06:37:02;;;;;;;8.98;5.65;;;;;;;5.30;80.68;101090.66;5052077;28;20143;-64
2022/02/08 06:39:49;;;;;;;6.55;5.40;;;;;;;5.31;80.69;101094.13;5053142;28;20048;-65
2022/02/08 06:42:33;;;;;;;9.52;4.93;;;;;;;5.33;80.79;101095.09;5053013;28;20082;-65
2022/02/08 06:45:25;;;;;;;7.05;4.80;;;;;;;5.33;80.91;101093.41;5052889;28;20063;-64
2022/02/08 06:48:10;;;;;;;8.05;5.57;;;;;;;5.32;80.54;101109.63;5052174;28;20127;-65
2022/02/08 06:50:55;;;;;;;7.07;5.72;;;;;;;5.33;80.48;101113.97;5052757;28;20492;-65
2022/02/08 06:53:39;;;;;;;9.93;6.25;;;;;;;5.33;81.13;101119.09;5051945;28;20416;-64
2022/02/08 06:56:26;;;;;;;9.60;5.75;;;;;;;5.34;80.27;101123.44;5052006;28;20078;-65
2022/02/08 06:59:11;;;;;;;8.98;5.47;;;;;;;5.34;80.55;101126.03;5052359;28;20075;-65
2022/02/08 07:01:56;;;;;;;7.20;5.28;;;;;;;5.35;80.81;101132.06;5051604;28;20122;-65
2022/02/08 07:04:42;;;;;;;9.40;5.65;;;;;;;5.36;80.62;101127.78;5053081;28;20055;-65
2022/02/08 07:07:27;;;;;;;7.68;5.18;;;;;;;5.36;80.72;101132.94;5052696;28;20060;-65
2022/02/08 07:10:13;;;;;;;8.02;5.13;;;;;;;5.35;80.88;101147.50;5055006;28;20079;-65
2022/02/08 07:12:57;;;;;;;7.35;5.10;;;;;;;5.36;80.59;101146.69;5055558;28;20467;-65
2022/02/08 07:15:41;;;;;;;6.30;5.00;;;;;;;5.38;80.56;101141.63;5056190;28;20412;-64
2022/02/08 07:18:27;;;;;;;9.98;5.88;;;;;;;5.37;80.54;101139.84;5055155;28;20171;-65
2022/02/08 07:21:11;;;;;;;6.45;5.03;;;;;;;5.38;80.75;101132.22;5055226;28;20052;-65
2022/02/08 07:23:55;;;;;;;;;;;;;;;5.38;80.45;101139.91;5055688;28;20047;-65
2022/02/08 07:26:39;;;;;;;9.88;6.55;;;;;;;5.38;80.57;101134.78;5054866;28;19988;-65
2022/02/08 07:29:27;;;;;;;6.07;5.07;;;;;;;5.38;80.67;101136.47;5056019;28;20052;-66
2022/02/08 07:32:11;;;;;;;8.02;5.28;;;;;;;5.38;81.26;101142.50;5055131;28;20099;-65
2022/02/08 07:35:22;;;;;;;;;;;;;;;5.38;80.40;101142.50;5055739;28;20128;-65
2022/02/08 07:38:18;;;;;;;8.55;6.05;;;;;;;5.37;80.82;101138.19;5055062;28;20012;-66
2022/02/08 07:43:49;;;;;;;;;;;;;;;5.38;80.77;101149.34;5055989;28;20052;-65
2022/02/08 07:46:33;;;;;;;6.88;4.85;;;;;;;5.38;81.21;101141.63;5055614;28;19942;-64
2022/02/08 07:49:17;;;;;;;8.52;5.82;;;;;;;5.39;80.69;101145.97;5055648;28;20503;-65
2022/02/08 07:52:01;;;;;;;8.38;6.10;;;;;;;5.40;80.28;101147.75;5055811;28;20562;-65
2022/02/08 07:54:45;;;;;;;7.80;5.65;;;;;;;5.40;80.79;101150.31;5055459;28;20048;-65
2022/02/08 07:57:31;;;;;;;9.63;5.82;;;;;;;5.41;80.77;101152.94;5054680;28;20095;-65
2022/02/08 08:00:16;;;;;;;7.07;5.38;;;;;;;5.41;81.18;101150.38;5055644;28;20120;-64
2022/02/08 08:03:00;;;;;;;;;;;;;;;5.43;81.32;101148.78;5055616;28;20055;-65
2022/02/08 08:05:44;;;;;;;7.95;5.50;;;;;;;5.43;81.30;101150.47;5055172;28;19923;-65
2022/02/08 08:08:28;;;;;;;7.05;6.18;;;;;;;5.43;80.68;101147.91;5055089;28;20052;-65
2022/02/08 08:11:16;;;;;;;11.65;7.00;;;;;;;5.44;81.00;101163.41;5055253;28;20141;-65
2022/02/08 08:14:02;;;;;;;15.70;6.60;;;;;;;5.46;81.12;101156.66;5054292;28;20443;-66
2022/02/08 08:16:52;;;;;;;7.13;5.07;;;;;;;5.46;80.62;101159.25;5054744;28;20055;-66
2022/02/08 08:19:37;;;;;;;8.02;4.95;;;;;;;5.47;81.09;101162.69;5054113;28;20055;-65
2022/02/08 08:22:22;;;;;;;8.27;5.63;;;;;;;5.48;80.65;101157.63;5054908;28;20075;-65
2022/02/08 08:25:06;;;;;;;;;;;;;;;5.48;81.06;101161.88;5055348;28;20044;-65
2022/02/08 08:27:50;;;;;;;6.30;4.85;;;;;;;5.48;81.39;101164.44;5054747;28;20296;-65
2022/02/08 08:30:34;;;;;;;5.72;4.28;;;;;;;5.49;80.98;101169.69;5055076;28;20178;-65
2022/02/08 08:33:20;;;;;;;8.48;4.75;;;;;;;5.49;81.11;101166.22;5054613;28;20052;-65
2022/02/08 08:37:10;;;;;;;6.72;5.30;;;;;;;5.50;80.91;101168.00;5132155;27;20256;-65
2022/02/08 08:40:02;;;;;;;6.65;5.28;;;;;;;5.51;81.22;101150.91;5131038;27;20172;-65
2022/02/08 08:43:00;;;;;;;6.53;4.88;;;;;;;5.52;80.93;101168.09;5132185;27;20046;-65
2022/02/08 08:48:46;;;;;;;5.72;4.82;;;;;;;5.52;81.49;101168.97;5131974;27;20394;-65
2022/02/08 08:51:41;;;;;;;6.00;5.05;;;;;;;5.53;81.60;101160.47;5131696;28;20445;-66
2022/02/08 08:54:28;;;;;;;10.13;5.85;;;;;;;5.53;81.33;101160.47;5130860;28;20054;-65
2022/02/08 08:57:12;;;;;;;6.53;5.82;;;;;;;5.54;81.07;101167.38;5130797;28;20035;-64
2022/02/08 09:00:04;;;;;;;8.35;5.57;;;;;;;5.55;81.27;101170.81;5131513;28;20047;-66
2022/02/08 09:02:48;;;;;;;6.40;5.38;;;;;;;5.55;81.10;101169.16;5130606;27;20047;-65
2022/02/08 09:05:32;;;;;;;6.57;5.03;;;;;;;5.55;81.04;101179.44;5132101;28;20046;-65
2022/02/08 09:08:16;;;;;;;7.30;6.60;;;;;;;5.57;81.32;101166.63;5131368;28;20050;-65
2022/02/08 09:11:10;;;;;;;6.75;5.35;;;;;;;5.57;81.63;101175.25;5131440;28;20108;-66
2022/02/08 09:31:19;;;;;;;6.03;4.55;;;;;;;5.61;81.10;101195.19;5131099;28;20104;-66
2022/02/08 09:34:05;;;;;;;6.68;5.20;;;;;;;5.64;81.53;101186.75;5130905;28;20070;-65
2022/02/08 09:36:49;;;;;;;8.20;4.70;;;;;;;5.64;81.46;101192.78;5129938;28;20517;-66
2022/02/08 09:39:33;;;;;;;8.25;4.50;;;;;;;5.66;81.77;101192.88;5131121;28;20537;-65
2022/02/08 09:42:17;;;;;;;5.85;4.68;;;;;;;5.66;81.48;101192.88;5130778;28;20054;-65
2022/02/08 09:45:01;;;;;;;;;;;;;;;5.65;81.35;101185.97;5131114;27;20429;-65
2022/02/08 09:48:01;;;;;;;5.85;4.20;;;;;;;5.66;81.41;101192.88;5121378;28;19918;-65
2022/02/08 09:50:48;;;;;;;8.45;4.30;;;;;;;5.68;81.53;101195.53;5116650;28;20517;-65
2022/02/08 09:53:35;;;;;;;5.35;4.60;;;;;;;5.68;81.48;101193.84;5117118;28;20074;-65
2022/02/08 09:56:21;;;;;;;5.72;4.32;;;;;;;5.70;81.39;101189.66;5115837;28;20073;-64
2022/02/08 09:59:06;;;;;;;6.45;4.40;;;;;;;5.71;81.60;101186.28;5116774;28;20047;-65
2022/02/08 10:01:56;;;;;;;4.97;4.32;;;;;;;5.72;81.47;101188.03;5116759;28;20509;-65
2022/02/08 10:04:43;;;;;;;6.28;4.30;;;;;;;5.74;81.68;101186.44;5115904;28;20042;-65
2022/02/08 10:07:33;;;;;;;6.07;3.88;;;;;;;5.75;81.42;101200.22;5115796;28;20070;-66
2022/02/08 10:10:24;;;;;;;5.60;4.00;;;;;;;5.75;81.51;101203.66;5115652;28;20047;-66
2022/02/08 10:14:04;;;;;;;5.82;3.70;;;;;;;5.76;81.66;101195.13;5115609;28;20104;-65
2022/02/08 10:22:49;;;;;;;6.65;3.55;;;;;;;5.79;81.66;101199.56;5116443;28;20074;-66
2022/02/08 10:28:32;;;;;;;5.30;3.53;;;;;;;5.80;81.45;101201.31;5116237;28;20046;-66
2022/02/08 10:40:19;;;;;;;4.78;3.45;;;;;;;5.83;81.49;101196.34;5116186;28;20042;-66
2022/02/08 10:43:07;;;;;;;3.80;2.88;;;;;;;5.82;82.08;101196.28;5115164;28;20051;-66
2022/02/08 10:45:52;;;;;;;5.47;2.80;;;;;;;5.84;81.71;101192.09;5114971;28;20063;-65
2022/02/08 10:48:35;;;;;;;4.07;2.80;;;;;;;5.84;81.42;101204.97;5115794;28;20051;-66
2022/02/08 10:51:20;;;;;;;5.35;3.30;;;;;;;5.84;81.95;101208.41;5115826;28;20054;-66
2022/02/08 10:54:10;;;;;;;4.20;2.65;;;;;;;5.85;82.04;101212.75;5115212;28;20050;-66
2022/02/08 10:57:02;;;;;;;8.93;2.78;;;;;;;5.86;81.99;101211.06;5115570;28;20112;-65
2022/02/08 10:59:53;;;;;;;7.75;3.33;;;;;;;5.87;81.91;101220.53;5114001;27;20082;-66
2022/02/08 11:02:45;;;;;;;5.25;3.47;;;;;;;5.87;81.88;101212.81;5114502;28;20038;-66
2022/02/08 11:05:49;;;;;;;5.78;3.25;;;;;;;5.87;81.73;101223.13;5115403;28;20418;-67
2022/02/08 11:08:58;;;;;;;4.43;3.80;;;;;;;5.86;82.33;101208.47;5115682;28;20073;-66
2022/02/08 11:19:00;;;;;;;4.80;2.88;;;;;;;5.84;82.03;101192.97;5115426;28;20062;-66
2022/02/08 11:21:37;;;;;;;8.57;3.58;;;;;;;5.85;82.15;101199.91;5112637;28;20460;-65
2022/02/08 11:24:30;;;;;;;3.75;2.85;;;;;;;5.86;81.71;101195.63;5114275;28;20081;-66
2022/02/08 11:27:18;;;;;;;4.85;3.33;;;;;;;5.85;81.65;101189.59;5114267;28;20065;-66
2022/02/08 11:30:11;;;;;;;5.55;4.07;;;;;;;5.88;82.09;101192.34;5115277;28;20525;-66
2022/02/08 11:33:10;;;;;;;6.82;3.75;;;;;;;5.87;81.96;101180.28;5114200;28;20535;-66
2022/02/08 11:51:32;;;;;;;5.90;4.70;;;;;;;5.91;82.23;101153.00;5114803;28;20127;-66
2022/02/08 11:54:21;;;;;;;11.73;4.40;;;;;;;5.90;82.27;101151.25;5114469;28;20050;-66
2022/02/08 12:05:46;;;;;;;5.63;3.92;;;;;;;5.94;82.31;101137.75;5114403;28;20047;-66
2022/02/08 12:08:31;;;;;;;6.18;4.10;;;;;;;5.92;81.95;101139.34;5113581;28;20567;-65
2022/02/08 12:11:56;;;;;;;5.50;3.85;;;;;;;5.93;82.43;101138.53;5114325;28;20046;-65
2022/02/08 12:32:41;;;;;;;5.93;3.85;;;;;;;5.94;82.65;101148.03;5114168;28;20050;-66
2022/02/08 12:54:11;;;;;;;4.45;4.05;;;;;;;5.96;82.24;101141.28;5113737;28;20457;-65
2022/02/08 12:57:12;;;;;;;7.80;4.20;;;;;;;5.97;82.98;101135.34;5113517;28;20096;-66
2022/02/08 14:07:31;;;;;;;4.22;3.47;;;;;;;6.08;82.71;101120.47;5172352;27;20049;-66
2022/02/08 14:10:18;;;;;;;4.03;3.63;;;;;;;6.09;82.76;101123.13;5171791;27;20558;-65
2022/02/08 14:22:19;;;;;;;3.70;3.22;;;;;;;6.11;82.63;101125.78;5157963;27;20041;-66
2022/02/08 14:35:11;;;;;;;3.13;2.83;;;;;;;6.11;83.13;101118.06;5158086;27;20046;-66
2022/02/08 15:08:34;;;;;;;5.13;3.22;;;;;;;6.19;83.22;101118.44;5157642;27;20054;-66
2022/02/08 15:11:18;;;;;;;3.70;3.40;;;;;;;6.18;83.14;101116.66;5141624;27;20106;-66
2022/02/08 15:14:03;;;;;;;;;;;;;;;6.16;83.05;101116.59;5142040;27;20468;-65
2022/02/08 15:16:47;;;;;;;4.07;3.45;;;;;;;6.17;83.10;101120.03;5141441;27;20265;-66
2022/02/08 15:19:31;;;;;;;5.25;3.40;;;;;;;6.18;83.06;101124.38;5139064;27;20091;-66
2022/02/08 15:22:17;;;;;;;4.53;3.47;;;;;;;6.18;83.20;101137.25;5139787;27;20116;-65
2022/02/08 15:25:02;;;;;;;3.75;3.30;;;;;;;6.19;83.16;101131.31;5155533;27;20041;-66
2022/02/08 15:27:47;;;;;;;5.47;3.40;;;;;;;6.18;83.12;101134.69;5140051;27;20037;-67
2022/02/08 15:30:35;;;;;;;3.85;3.55;;;;;;;6.18;82.81;101124.38;5154930;27;20111;-66
2022/02/08 15:33:19;;;;;;;4.50;3.53;;;;;;;6.19;83.01;101133.88;5156338;27;20049;-66
2022/02/08 15:36:03;;;;;;;;;;;;;;;6.18;83.48;101122.72;5141161;27;20033;-66
2022/02/08 15:38:51;;;;;;;3.83;3.35;;;;;;;6.19;83.21;101131.31;5156141;27;19918;-66
2022/02/08 15:41:40;;;;;;;20.83;4.25;;;;;;;6.23;83.59;101128.09;5156153;27;20042;-66
2022/02/08 15:44:27;;;;;;;8.82;6.90;;;;;;;6.27;83.22;101130.03;5156309;27;20050;-66
2022/02/08 15:47:12;;;;;;;35.03;16.35;;;;;;;6.28;83.19;101131.81;5140954;27;20542;-66
2022/02/08 15:50:07;;;;;;;49.90;25.35;;;;;;;6.28;83.35;101129.22;5156257;27;20091;-66
2022/02/08 15:56:05;;;;;;;351.45;166.45;;;;;;;6.28;83.08;101126.66;5156222;27;20049;-66
2022/02/08 16:07:55;;;;;;;1407.70;770.25;;;;;;;6.28;83.45;101129.22;5156106;27;19918;-66
2022/02/08 16:13:51;;;;;;;1222.97;704.67;;;;;;;6.28;83.65;101144.66;5155704;27;20088;-66
2022/02/08 16:19:53;;;;;;;1240.78;714.63;;;;;;;6.29;83.40;101145.53;5155387;27;20037;-66
2022/02/08 16:23:50;;;;;;;1116.75;660.90;;;;;;;6.30;83.67;101143.06;5155323;27;20037;-66
2022/02/08 16:26:09;;;;;;;1183.07;671.80;;;;;;;6.31;83.48;101139.66;5149542;27;20409;-65
2022/02/08 16:49:45;;;;;;;937.55;558.78;;;;;;;6.35;83.69;101135.56;5155455;27;20045;-65
2022/02/08 16:52:52;;;;;;;949.42;555.67;;;;;;;6.34;83.27;101144.97;5155419;27;20106;-66
2022/02/08 16:58:29;;;;;;;959.20;567.90;;;;;;;6.36;83.84;101155.38;5155434;27;20409;-65
2022/02/08 17:01:20;;;;;;;878.20;523.67;;;;;;;6.35;83.44;101157.03;5154870;27;20046;-65
2022/02/08 17:04:08;;;;;;;851.58;511.48;;;;;;;6.36;83.77;101153.66;5139925;27;20098;-66
2022/02/08 17:06:53;;;;;;;746.38;451.85;;;;;;;6.36;83.41;101150.22;5155350;27;20053;-66
2022/02/08 17:09:54;;;;;;;743.78;446.20;;;;;;;6.36;83.88;101148.50;5139592;27;20075;-66
2022/02/08 17:12:53;;;;;;;727.90;440.33;;;;;;;6.36;83.83;101156.22;5155164;27;20045;-66
2022/02/08 17:15:55;;;;;;;633.03;382.42;;;;;;;6.35;83.61;101158.75;5139582;27;20049;-66
2022/02/08 17:46:06;;;;;;;377.15;205.23;;;;;;;6.34;83.52;101165.56;5154840;27;20050;-67
2022/02/08 17:48:50;;;;;;;384.88;212.60;;;;;;;6.35;83.59;101166.47;5142747;27;20554;-66
2022/02/08 17:51:34;;;;;;;339.98;180.50;;;;;;;6.35;83.97;101174.19;5158519;27;20064;-65
2022/02/08 17:54:19;;;;;;;346.88;192.43;;;;;;;6.35;83.97;101172.50;5143379;27;20077;-67
2022/02/08 17:57:07;;;;;;;274.90;148.50;;;;;;;6.34;83.51;101170.72;5159038;27;20049;-65
2022/02/08 17:59:54;;;;;;;313.95;169.95;;;;;;;6.34;83.79;101181.00;5142580;27;20045;-66
2022/02/08 18:02:40;;;;;;;279.60;155.07;;;;;;;6.35;83.54;101177.63;5143031;27;20422;-66
2022/02/08 18:05:25;;;;;;;276.02;151.43;;;;;;;6.36;83.39;101178.53;5158694;27;20087;-66
2022/02/08 18:08:12;;;;;;;280.23;148.52;;;;;;;6.36;83.71;101188.84;5158391;27;20550;-67
2022/02/08 18:10:57;;;;;;;252.02;139.80;;;;;;;6.34;83.41;101181.00;5142752;27;20451;-66
2022/02/08 18:13:44;;;;;;;287.65;158.63;;;;;;;6.35;83.47;101194.78;5142716;27;20049;-66
2022/02/08 18:16:33;;;;;;;264.95;148.02;;;;;;;6.35;83.62;101189.63;5142745;27;20142;-65
2022/02/08 18:19:21;;;;;;;269.23;146.93;;;;;;;6.35;83.93;101194.78;5158154;27;20401;-65
2022/02/08 18:22:54;;;;;;;276.90;151.98;;;;;;;6.35;84.05;101185.38;5158059;27;20593;-66
2022/02/08 18:25:41;;;;;;;257.40;139.60;;;;;;;6.35;83.67;101180.22;5157572;27;20118;-66
2022/02/08 19:21:46;;;;;;;258.90;123.80;;;;;;;6.40;84.24;101165.00;5074812;28;20066;-66
2022/02/08 19:24:30;;;;;;;272.45;138.20;;;;;;;6.41;84.00;101171.91;5074929;28;20553;-66
2022/02/08 19:27:16;;;;;;;241.88;121.50;;;;;;;6.42;83.79;101157.34;5075217;28;20502;-66
2022/02/08 19:30:04;;;;;;;288.27;142.45;;;;;;;6.43;83.93;101164.28;5075135;28;20075;-66
2022/02/08 19:32:56;;;;;;;282.63;139.13;;;;;;;6.43;84.09;101159.13;5074986;28;20095;-65
2022/02/08 19:35:43;;;;;;;252.80;125.95;;;;;;;6.44;83.48;101150.59;5073604;28;20141;-66
2022/02/08 19:38:27;;;;;;;260.20;133.88;;;;;;;6.44;83.73;101148.03;5074814;28;20134;-66
2022/02/08 19:41:24;;;;;;;265.90;138.35;;;;;;;6.43;84.03;101152.28;5074511;28;20044;-65
2022/02/08 19:44:08;;;;;;;287.85;147.20;;;;;;;6.44;83.73;101153.19;5073824;28;20526;-66
2022/02/08 19:46:57;;;;;;;;;;;;;;;6.44;84.02;101151.47;5075255;28;20128;-66
2022/02/08 19:49:41;;;;;;;256.05;132.27;;;;;;;6.42;84.22;101160.81;5073464;28;20410;-67
2022/02/08 19:52:32;;;;;;;262.20;138.20;;;;;;;6.43;84.08;101154.84;5074258;28;20119;-65
2022/02/08 19:55:29;;;;;;;210.68;110.35;;;;;;;6.43;83.95;101157.44;5073368;28;20043;-66
2022/02/08 19:58:26;;;;;;;182.85;95.15;;;;;;;6.43;83.54;101157.44;5074540;28;20190;-65
2022/02/08 20:01:15;;;;;;;206.82;110.40;;;;;;;6.45;84.18;101172.97;5073347;28;20075;-66
2022/02/08 20:04:17;;;;;;;181.27;97.68;;;;;;;6.45;84.10;101167.81;5074389;28;20105;-66
2022/02/08 20:07:03;;;;;;;174.32;92.85;;;;;;;6.44;83.72;101176.34;5074018;28;20048;-66
2022/02/08 20:09:47;;;;;;;157.18;88.50;;;;;;;6.45;84.34;101175.56;5072646;28;20047;-65
2022/02/08 20:12:31;;;;;;;160.48;85.88;;;;;;;6.45;83.92;101173.84;5074248;28;20047;-65
2022/02/08 20:15:15;;;;;;;136.38;73.35;;;;;;;6.45;84.32;101171.28;5074307;28;20595;-67
2022/02/08 20:18:03;;;;;;;117.07;63.35;;;;;;;6.46;83.88;101169.59;5073218;28;20399;-66
2022/02/08 20:20:48;;;;;;;119.18;64.18;;;;;;;6.45;83.68;101175.56;5073077;28;20094;-66
2022/02/08 20:23:35;;;;;;;112.72;59.88;;;;;;;6.47;83.81;101179.06;5073028;28;20135;-66
2022/02/08 20:26:26;;;;;;;99.72;54.40;;;;;;;6.47;84.10;101173.91;5072945;28;20087;-66
2022/02/08 20:29:23;;;;;;;105.53;58.03;;;;;;;6.47;84.30;101179.06;5073086;28;20083;-66
2022/02/08 20:32:07;;;;;;;88.32;48.63;;;;;;;6.47;84.27;101181.63;5073576;28;20097;-67
2022/02/08 20:34:51;;;;;;;80.47;43.53;;;;;;;6.48;83.98;101178.25;5074044;28;20507;-66
2022/02/08 20:37:38;;;;;;;74.95;42.33;;;;;;;6.48;83.93;101175.69;5073701;28;20407;-66